Terminal Aerodrome Forecast
Issued by NWS

Home | Current Version | Previous Version | Text Only | Print | Product List | Glossary On
Versions: 1 2 3 4 5 6 7 8 9 10 11 12 13 14 15 16 17 18 19 20 21 22
000
FTAK31 PAJN 301300 AAA
TAFAJN
TAF AMD
PAJN 301333Z 3014/3112 00000KT 1SM BR OVC004
      TEMPO 3014/3017 1/2SM FG VV003
     FM301700 00000KT P6SM SCT005 BKN025
     FM302000 08004KT P6SM FEW060
     FM310600 07005KT P6SM SKC=

USA.gov is the U.S. government's official web portal to all federal, state and local government web resources and services.